sensor_id;sensor_type;location;lat;lon;timestamp;temperature;humidity
3602;DHT22;1815;50.950;6.920;2023-02-15T00:01:24;5.10;99.90
3602;DHT22;1815;50.950;6.920;2023-02-15T00:03:50;5.10;99.90
3602;DHT22;1815;50.950;6.920;2023-02-15T00:06:16;5.10;99.90
3602;DHT22;1815;50.950;6.920;2023-02-15T00:08:42;5.10;99.90
3602;DHT22;1815;50.950;6.920;2023-02-15T00:11:10;5.10;99.90
3602;DHT22;1815;50.950;6.920;2023-02-15T00:13:36;5.10;99.90
3602;DHT22;1815;50.950;6.920;2023-02-15T00:16:06;5.00;99.90
3602;DHT22;1815;50.950;6.920;2023-02-15T00:18:32;5.00;99.90
3602;DHT22;1815;50.950;6.920;2023-02-15T00:21:02;5.00;99.90
3602;DHT22;1815;50.950;6.920;2023-02-15T00:23:28;5.00;99.90
3602;DHT22;1815;50.950;6.920;2023-02-15T00:26:04;5.00;99.90
3602;DHT22;1815;50.950;6.920;2023-02-15T00:28:30;4.90;99.90
3602;DHT22;1815;50.950;6.920;2023-02-15T00:31:06;5.00;99.90
3602;DHT22;1815;50.950;6.920;2023-02-15T00:33:34;5.00;99.90
3602;DHT22;1815;50.950;6.920;2023-02-15T00:36:01;4.90;99.90
3602;DHT22;1815;50.950;6.920;2023-02-15T00:38:28;4.90;99.90
3602;DHT22;1815;50.950;6.920;2023-02-15T00:40:55;4.90;99.90
3602;DHT22;1815;50.950;6.920;2023-02-15T00:43:24;4.90;99.90
3602;DHT22;1815;50.950;6.920;2023-02-15T00:45:50;4.90;99.90
3602;DHT22;1815;50.950;6.920;2023-02-15T00:48:17;4.90;99.90
3602;DHT22;1815;50.950;6.920;2023-02-15T00:50:56;4.90;99.90
3602;DHT22;1815;50.950;6.920;2023-02-15T00:53:22;4.80;99.90
3602;DHT22;1815;50.950;6.920;2023-02-15T00:55:49;4.80;99.90
3602;DHT22;1815;50.950;6.920;2023-02-15T00:58:15;4.80;99.90
3602;DHT22;1815;50.950;6.920;2023-02-15T01:00:44;4.80;99.90
3602;DHT22;1815;50.950;6.920;2023-02-15T01:03:10;4.70;99.90
3602;DHT22;1815;50.950;6.920;2023-02-15T01:05:36;4.70;99.90
3602;DHT22;1815;50.950;6.920;2023-02-15T01:08:03;4.70;99.90
3602;DHT22;1815;50.950;6.920;2023-02-15T01:10:29;4.70;99.90
3602;DHT22;1815;50.950;6.920;2023-02-15T01:12:56;4.70;99.90
3602;DHT22;1815;50.950;6.920;2023-02-15T01:15:23;4.70;99.90
3602;DHT22;1815;50.950;6.920;2023-02-15T01:17:48;4.70;99.90
3602;DHT22;1815;50.950;6.920;2023-02-15T01:20:25;4.70;99.90
3602;DHT22;1815;50.950;6.920;2023-02-15T01:22:52;4.60;99.90
3602;DHT22;1815;50.950;6.920;2023-02-15T01:25:20;4.60;99.90
3602;DHT22;1815;50.950;6.920;2023-02-15T01:27:46;4.60;99.90
3602;DHT22;1815;50.950;6.920;2023-02-15T01:30:13;4.60;99.90
3602;DHT22;1815;50.950;6.920;2023-02-15T01:32:40;4.60;99.90
3602;DHT22;1815;50.950;6.920;2023-02-15T01:35:07;4.60;99.90
3602;DHT22;1815;50.950;6.920;2023-02-15T01:37:34;4.60;99.90
3602;DHT22;1815;50.950;6.920;2023-02-15T01:40:00;4.50;99.90
3602;DHT22;1815;50.950;6.920;2023-02-15T01:42:28;4.50;99.90
3602;DHT22;1815;50.950;6.920;2023-02-15T01:44:56;4.50;99.90
3602;DHT22;1815;50.950;6.920;2023-02-15T01:47:43;4.50;99.90
3602;DHT22;1815;50.950;6.920;2023-02-15T01:50:16;4.50;99.90
3602;DHT22;1815;50.950;6.920;2023-02-15T01:53:01;4.50;99.90
3602;DHT22;1815;50.950;6.920;2023-02-15T01:55:32;4.40;99.90
3602;DHT22;1815;50.950;6.920;2023-02-15T01:58:00;4.40;99.90
3602;DHT22;1815;50.950;6.920;2023-02-15T02:00:26;4.30;99.90
3602;DHT22;1815;50.950;6.920;2023-02-15T02:02:54;4.30;99.90
3602;DHT22;1815;50.950;6.920;2023-02-15T02:05:24;4.30;99.90
3602;DHT22;1815;50.950;6.920;2023-02-15T02:07:51;4.30;99.90
3602;DHT22;1815;50.950;6.920;2023-02-15T02:10:21;4.30;99.90
3602;DHT22;1815;50.950;6.920;2023-02-15T02:12:51;4.30;99.90
3602;DHT22;1815;50.950;6.920;2023-02-15T02:15:18;4.30;99.90
3602;DHT22;1815;50.950;6.920;2023-02-15T02:23:16;4.20;99.90
3602;DHT22;1815;50.950;6.920;2023-02-15T02:35:04;4.20;99.90
3602;DHT22;1815;50.950;6.920;2023-02-15T02:37:52;4.10;99.90
3602;DHT22;1815;50.950;6.920;2023-02-15T02:48:24;4.10;99.90
3602;DHT22;1815;50.950;6.920;2023-02-15T02:50:51;4.10;99.90
3602;DHT22;1815;50.950;6.920;2023-02-15T02:53:17;4.10;99.90
3602;DHT22;1815;50.950;6.920;2023-02-15T02:56:23;4.00;99.90
3602;DHT22;1815;50.950;6.920;2023-02-15T02:58:48;4.00;99.90
3602;DHT22;1815;50.950;6.920;2023-02-15T03:01:23;4.00;99.90
3602;DHT22;1815;50.950;6.920;2023-02-15T03:03:55;4.00;99.90
3602;DHT22;1815;50.950;6.920;2023-02-15T03:06:46;4.00;99.90
3602;DHT22;1815;50.950;6.920;2023-02-15T03:09:21;4.00;99.90
3602;DHT22;1815;50.950;6.920;2023-02-15T03:11:49;4.00;99.90
3602;DHT22;1815;50.950;6.920;2023-02-15T03:14:17;3.90;99.90
3602;DHT22;1815;50.950;6.920;2023-02-15T03:16:47;3.90;99.90
3602;DHT22;1815;50.950;6.920;2023-02-15T03:19:19;3.90;99.90
3602;DHT22;1815;50.950;6.920;2023-02-15T03:21:51;3.80;99.90
3602;DHT22;1815;50.950;6.920;2023-02-15T03:24:34;3.80;99.90
3602;DHT22;1815;50.950;6.920;2023-02-15T03:27:05;3.80;99.90
3602;DHT22;1815;50.950;6.920;2023-02-15T03:29:32;3.80;99.90
3602;DHT22;1815;50.950;6.920;2023-02-15T03:32:00;3.80;99.90
3602;DHT22;1815;50.950;6.920;2023-02-15T03:34:28;3.80;99.90
3602;DHT22;1815;50.950;6.920;2023-02-15T03:42:25;3.70;99.90
3602;DHT22;1815;50.950;6.920;2023-02-15T03:44:57;3.70;99.90
3602;DHT22;1815;50.950;6.920;2023-02-15T03:47:28;3.70;99.90
3602;DHT22;1815;50.950;6.920;2023-02-15T03:50:00;3.70;99.90
3602;DHT22;1815;50.950;6.920;2023-02-15T03:52:29;3.70;99.90
3602;DHT22;1815;50.950;6.920;2023-02-15T03:54:55;3.70;99.90
3602;DHT22;1815;50.950;6.920;2023-02-15T03:57:27;3.70;99.90
3602;DHT22;1815;50.950;6.920;2023-02-15T04:00:15;3.70;99.90
3602;DHT22;1815;50.950;6.920;2023-02-15T04:05:35;3.60;99.90
3602;DHT22;1815;50.950;6.920;2023-02-15T04:08:01;3.60;99.90
3602;DHT22;1815;50.950;6.920;2023-02-15T04:10:27;3.60;99.90
3602;DHT22;1815;50.950;6.920;2023-02-15T04:13:11;3.60;99.90
3602;DHT22;1815;50.950;6.920;2023-02-15T04:15:37;3.60;99.90
3602;DHT22;1815;50.950;6.920;2023-02-15T04:18:21;3.60;99.90
3602;DHT22;1815;50.950;6.920;2023-02-15T04:20:47;3.60;99.90
3602;DHT22;1815;50.950;6.920;2023-02-15T04:23:31;3.60;99.90
3602;DHT22;1815;50.950;6.920;2023-02-15T04:26:16;3.60;99.90
3602;DHT22;1815;50.950;6.920;2023-02-15T04:28:42;3.60;99.90
3602;DHT22;1815;50.950;6.920;2023-02-15T04:31:08;3.60;99.90
3602;DHT22;1815;50.950;6.920;2023-02-15T04:33:33;3.60;99.90
3602;DHT22;1815;50.950;6.920;2023-02-15T04:36:02;3.60;99.90
3602;DHT22;1815;50.950;6.920;2023-02-15T04:38:28;3.60;99.90
3602;DHT22;1815;50.950;6.920;2023-02-15T04:40:54;3.60;99.90
3602;DHT22;1815;50.950;6.920;2023-02-15T04:43:20;3.60;99.90
3602;DHT22;1815;50.950;6.920;2023-02-15T04:45:49;3.60;99.90
3602;DHT22;1815;50.950;6.920;2023-02-15T04:48:16;3.60;99.90
3602;DHT22;1815;50.950;6.920;2023-02-15T04:50:43;3.60;99.90
3602;DHT22;1815;50.950;6.920;2023-02-15T04:53:09;3.60;99.90
3602;DHT22;1815;50.950;6.920;2023-02-15T04:55:35;3.60;99.90
3602;DHT22;1815;50.950;6.920;2023-02-15T04:58:00;3.50;99.90
3602;DHT22;1815;50.950;6.920;2023-02-15T05:00:26;3.60;99.90
3602;DHT22;1815;50.950;6.920;2023-02-15T05:02:53;3.60;99.90
3602;DHT22;1815;50.950;6.920;2023-02-15T05:05:18;3.60;99.90
3602;DHT22;1815;50.950;6.920;2023-02-15T05:07:44;3.50;99.90
3602;DHT22;1815;50.950;6.920;2023-02-15T05:10:10;3.50;99.90
3602;DHT22;1815;50.950;6.920;2023-02-15T05:12:36;3.50;99.90
3602;DHT22;1815;50.950;6.920;2023-02-15T05:15:01;3.50;99.90
3602;DHT22;1815;50.950;6.920;2023-02-15T05:17:27;3.60;99.90
3602;DHT22;1815;50.950;6.920;2023-02-15T05:19:53;3.50;99.90
3602;DHT22;1815;50.950;6.920;2023-02-15T05:22:18;3.50;99.90
3602;DHT22;1815;50.950;6.920;2023-02-15T05:24:44;3.50;99.90
3602;DHT22;1815;50.950;6.920;2023-02-15T05:27:28;3.50;99.90
3602;DHT22;1815;50.950;6.920;2023-02-15T05:30:13;3.50;99.90
3602;DHT22;1815;50.950;6.920;2023-02-15T05:32:39;3.50;99.90
3602;DHT22;1815;50.950;6.920;2023-02-15T05:35:06;3.40;99.90
3602;DHT22;1815;50.950;6.920;2023-02-15T05:37:32;3.40;99.90
3602;DHT22;1815;50.950;6.920;2023-02-15T05:39:58;3.40;99.90
3602;DHT22;1815;50.950;6.920;2023-02-15T05:42:23;3.40;99.90
3602;DHT22;1815;50.950;6.920;2023-02-15T05:44:49;3.40;99.90
3602;DHT22;1815;50.950;6.920;2023-02-15T05:47:15;3.40;99.90
3602;DHT22;1815;50.950;6.920;2023-02-15T05:49:40;3.40;99.90
3602;DHT22;1815;50.950;6.920;2023-02-15T05:52:06;3.40;99.90
3602;DHT22;1815;50.950;6.920;2023-02-15T05:54:32;3.40;99.90
3602;DHT22;1815;50.950;6.920;2023-02-15T05:56:57;3.40;99.90
3602;DHT22;1815;50.950;6.920;2023-02-15T05:59:23;3.40;99.90
3602;DHT22;1815;50.950;6.920;2023-02-15T06:01:49;3.30;99.90
3602;DHT22;1815;50.950;6.920;2023-02-15T06:04:15;3.40;99.90
3602;DHT22;1815;50.950;6.920;2023-02-15T06:06:41;3.40;99.90
3602;DHT22;1815;50.950;6.920;2023-02-15T06:09:07;3.30;99.90
3602;DHT22;1815;50.950;6.920;2023-02-15T06:11:32;3.30;99.90
3602;DHT22;1815;50.950;6.920;2023-02-15T06:13:58;3.30;99.90
3602;DHT22;1815;50.950;6.920;2023-02-15T06:16:24;3.30;99.90
3602;DHT22;1815;50.950;6.920;2023-02-15T06:18:49;3.30;99.90
3602;DHT22;1815;50.950;6.920;2023-02-15T06:21:15;3.30;99.90
3602;DHT22;1815;50.950;6.920;2023-02-15T06:23:41;3.30;99.90
3602;DHT22;1815;50.950;6.920;2023-02-15T06:26:06;3.30;99.90
3602;DHT22;1815;50.950;6.920;2023-02-15T06:28:32;3.30;99.90
3602;DHT22;1815;50.950;6.920;2023-02-15T06:30:58;3.30;99.90
3602;DHT22;1815;50.950;6.920;2023-02-15T06:33:23;3.30;99.90
3602;DHT22;1815;50.950;6.920;2023-02-15T06:35:49;3.30;99.90
3602;DHT22;1815;50.950;6.920;2023-02-15T06:38:15;3.30;99.90
3602;DHT22;1815;50.950;6.920;2023-02-15T06:40:40;3.30;99.90
3602;DHT22;1815;50.950;6.920;2023-02-15T06:43:06;3.30;99.90
3602;DHT22;1815;50.950;6.920;2023-02-15T06:45:32;3.30;99.90
3602;DHT22;1815;50.950;6.920;2023-02-15T06:47:58;3.30;99.90
3602;DHT22;1815;50.950;6.920;2023-02-15T06:50:23;3.30;99.90
3602;DHT22;1815;50.950;6.920;2023-02-15T06:52:49;3.30;99.90
3602;DHT22;1815;50.950;6.920;2023-02-15T06:55:15;3.30;99.90
3602;DHT22;1815;50.950;6.920;2023-02-15T06:57:41;3.30;99.90
3602;DHT22;1815;50.950;6.920;2023-02-15T07:00:07;3.30;99.90
3602;DHT22;1815;50.950;6.920;2023-02-15T07:02:33;3.30;99.90
3602;DHT22;1815;50.950;6.920;2023-02-15T07:04:59;3.30;99.90
3602;DHT22;1815;50.950;6.920;2023-02-15T07:07:25;3.30;99.90
3602;DHT22;1815;50.950;6.920;2023-02-15T07:09:50;3.30;99.90
3602;DHT22;1815;50.950;6.920;2023-02-15T07:12:16;3.30;99.90
3602;DHT22;1815;50.950;6.920;2023-02-15T07:15:01;3.40;99.90
3602;DHT22;1815;50.950;6.920;2023-02-15T07:17:27;3.40;99.90
3602;DHT22;1815;50.950;6.920;2023-02-15T07:19:54;3.40;99.90
3602;DHT22;1815;50.950;6.920;2023-02-15T07:22:21;3.40;99.90
3602;DHT22;1815;50.950;6.920;2023-02-15T07:24:47;3.40;99.90
3602;DHT22;1815;50.950;6.920;2023-02-15T07:27:15;3.50;99.90
3602;DHT22;1815;50.950;6.920;2023-02-15T07:29:40;3.50;99.90
3602;DHT22;1815;50.950;6.920;2023-02-15T07:32:06;3.50;99.90
3602;DHT22;1815;50.950;6.920;2023-02-15T07:34:32;3.50;99.90
3602;DHT22;1815;50.950;6.920;2023-02-15T07:36:57;3.50;99.90
3602;DHT22;1815;50.950;6.920;2023-02-15T07:39:23;3.50;99.90
3602;DHT22;1815;50.950;6.920;2023-02-15T07:41:49;3.60;99.90
3602;DHT22;1815;50.950;6.920;2023-02-15T07:44:15;3.60;99.90
3602;DHT22;1815;50.950;6.920;2023-02-15T07:46:41;3.60;99.90
3602;DHT22;1815;50.950;6.920;2023-02-15T07:49:07;3.70;99.90
3602;DHT22;1815;50.950;6.920;2023-02-15T07:51:33;3.60;99.90
3602;DHT22;1815;50.950;6.920;2023-02-15T07:53:59;3.60;99.90
3602;DHT22;1815;50.950;6.920;2023-02-15T07:56:25;3.70;99.90
3602;DHT22;1815;50.950;6.920;2023-02-15T07:58:51;3.70;99.90
3602;DHT22;1815;50.950;6.920;2023-02-15T08:01:22;3.80;99.90
3602;DHT22;1815;50.950;6.920;2023-02-15T08:03:48;3.80;99.90
3602;DHT22;1815;50.950;6.920;2023-02-15T08:06:14;3.90;99.90
3602;DHT22;1815;50.950;6.920;2023-02-15T08:08:41;3.90;99.90
3602;DHT22;1815;50.950;6.920;2023-02-15T08:11:19;3.90;99.90
3602;DHT22;1815;50.950;6.920;2023-02-15T08:19:15;4.10;99.90
3602;DHT22;1815;50.950;6.920;2023-02-15T08:21:48;4.20;99.90
3602;DHT22;1815;50.950;6.920;2023-02-15T08:24:17;4.30;99.90
3602;DHT22;1815;50.950;6.920;2023-02-15T08:26:44;4.40;99.90
3602;DHT22;1815;50.950;6.920;2023-02-15T08:29:20;4.50;99.90
3602;DHT22;1815;50.950;6.920;2023-02-15T08:31:52;4.60;99.90
3602;DHT22;1815;50.950;6.920;2023-02-15T08:34:19;4.70;99.90
3602;DHT22;1815;50.950;6.920;2023-02-15T08:36:45;4.70;99.90
3602;DHT22;1815;50.950;6.920;2023-02-15T08:39:12;4.80;99.90
3602;DHT22;1815;50.950;6.920;2023-02-15T08:41:39;4.90;99.90
3602;DHT22;1815;50.950;6.920;2023-02-15T08:44:07;5.00;99.90
3602;DHT22;1815;50.950;6.920;2023-02-15T08:46:36;5.10;99.90
3602;DHT22;1815;50.950;6.920;2023-02-15T08:49:02;5.20;99.90
3602;DHT22;1815;50.950;6.920;2023-02-15T08:51:31;5.30;99.90
3602;DHT22;1815;50.950;6.920;2023-02-15T08:54:00;5.40;99.90
3602;DHT22;1815;50.950;6.920;2023-02-15T08:56:29;5.40;99.90
3602;DHT22;1815;50.950;6.920;2023-02-15T08:58:56;5.50;99.90
3602;DHT22;1815;50.950;6.920;2023-02-15T09:01:27;5.80;99.90
3602;DHT22;1815;50.950;6.920;2023-02-15T09:03:58;6.30;99.90
3602;DHT22;1815;50.950;6.920;2023-02-15T09:06:24;6.90;99.90
3602;DHT22;1815;50.950;6.920;2023-02-15T09:08:50;7.50;99.90
3602;DHT22;1815;50.950;6.920;2023-02-15T09:11:19;8.20;99.90
3602;DHT22;1815;50.950;6.920;2023-02-15T09:13:57;8.90;99.90
3602;DHT22;1815;50.950;6.920;2023-02-15T09:16:24;9.50;99.90
3602;DHT22;1815;50.950;6.920;2023-02-15T09:18:51;10.20;99.90
3602;DHT22;1815;50.950;6.920;2023-02-15T09:21:19;10.80;99.90
3602;DHT22;1815;50.950;6.920;2023-02-15T09:23:47;11.20;99.90
3602;DHT22;1815;50.950;6.920;2023-02-15T09:26:18;11.70;99.90
3602;DHT22;1815;50.950;6.920;2023-02-15T09:28:45;12.30;99.90
3602;DHT22;1815;50.950;6.920;2023-02-15T09:31:16;12.60;99.90
3602;DHT22;1815;50.950;6.920;2023-02-15T09:33:43;13.00;99.90
3602;DHT22;1815;50.950;6.920;2023-02-15T09:36:26;13.30;99.90
3602;DHT22;1815;50.950;6.920;2023-02-15T10:03:18;17.10;99.90
3602;DHT22;1815;50.950;6.920;2023-02-15T10:11:26;16.70;95.30
3602;DHT22;1815;50.950;6.920;2023-02-15T10:14:19;16.20;90.90
3602;DHT22;1815;50.950;6.920;2023-02-15T10:27:31;14.20;93.20
3602;DHT22;1815;50.950;6.920;2023-02-15T10:30:12;14.10;93.90
3602;DHT22;1815;50.950;6.920;2023-02-15T10:33:00;14.20;95.90
3602;DHT22;1815;50.950;6.920;2023-02-15T10:35:42;14.20;92.50
3602;DHT22;1815;50.950;6.920;2023-02-15T10:41:29;14.00;95.10
3602;DHT22;1815;50.950;6.920;2023-02-15T10:44:35;14.00;94.60
3602;DHT22;1815;50.950;6.920;2023-02-15T10:49:59;14.00;94.50
3602;DHT22;1815;50.950;6.920;2023-02-15T11:01:44;13.50;91.60
3602;DHT22;1815;50.950;6.920;2023-02-15T11:04:44;13.50;93.40
3602;DHT22;1815;50.950;6.920;2023-02-15T11:07:27;13.50;94.50
3602;DHT22;1815;50.950;6.920;2023-02-15T11:12:49;13.40;93.30
3602;DHT22;1815;50.950;6.920;2023-02-15T11:15:24;13.50;95.10
3602;DHT22;1815;50.950;6.920;2023-02-15T11:17:58;13.50;95.60
3602;DHT22;1815;50.950;6.920;2023-02-15T11:20:42;13.70;96.30
3602;DHT22;1815;50.950;6.920;2023-02-15T11:23:15;14.00;96.10
3602;DHT22;1815;50.950;6.920;2023-02-15T11:25:45;14.20;95.30
3602;DHT22;1815;50.950;6.920;2023-02-15T11:28:21;14.10;94.80
3602;DHT22;1815;50.950;6.920;2023-02-15T11:30:51;14.00;91.80
3602;DHT22;1815;50.950;6.920;2023-02-15T11:33:27;13.90;92.80
3602;DHT22;1815;50.950;6.920;2023-02-15T11:36:02;13.90;92.80
3602;DHT22;1815;50.950;6.920;2023-02-15T11:38:32;14.00;93.80
3602;DHT22;1815;50.950;6.920;2023-02-15T11:41:13;14.10;95.10
3602;DHT22;1815;50.950;6.920;2023-02-15T11:43:52;13.90;92.60
3602;DHT22;1815;50.950;6.920;2023-02-15T11:46:18;13.80;93.30
3602;DHT22;1815;50.950;6.920;2023-02-15T11:48:46;13.70;93.80
3602;DHT22;1815;50.950;6.920;2023-02-15T11:51:15;13.50;93.10
3602;DHT22;1815;50.950;6.920;2023-02-15T11:53:43;13.40;93.20
3602;DHT22;1815;50.950;6.920;2023-02-15T11:56:23;13.10;92.40
3602;DHT22;1815;50.950;6.920;2023-02-15T11:59:04;12.90;93.10
3602;DHT22;1815;50.950;6.920;2023-02-15T12:01:35;12.80;93.80
3602;DHT22;1815;50.950;6.920;2023-02-15T12:04:06;12.70;94.30
3602;DHT22;1815;50.950;6.920;2023-02-15T12:06:38;12.70;94.40
3602;DHT22;1815;50.950;6.920;2023-02-15T12:09:35;12.70;94.70
3602;DHT22;1815;50.950;6.920;2023-02-15T12:12:24;12.50;94.30
3602;DHT22;1815;50.950;6.920;2023-02-15T12:14:52;12.40;94.50
3602;DHT22;1815;50.950;6.920;2023-02-15T12:17:48;12.30;94.90
3602;DHT22;1815;50.950;6.920;2023-02-15T12:22:46;12.40;96.20
3602;DHT22;1815;50.950;6.920;2023-02-15T12:25:43;12.40;96.10
3602;DHT22;1815;50.950;6.920;2023-02-15T12:28:35;12.50;96.10
3602;DHT22;1815;50.950;6.920;2023-02-15T12:31:09;12.60;96.50
3602;DHT22;1815;50.950;6.920;2023-02-15T12:33:39;12.60;96.50
3602;DHT22;1815;50.950;6.920;2023-02-15T12:41:44;12.60;96.30
3602;DHT22;1815;50.950;6.920;2023-02-15T12:44:23;12.60;96.50
3602;DHT22;1815;50.950;6.920;2023-02-15T12:47:02;12.60;96.50
3602;DHT22;1815;50.950;6.920;2023-02-15T12:52:10;12.60;96.00
3602;DHT22;1815;50.950;6.920;2023-02-15T12:54:48;12.60;96.30
3602;DHT22;1815;50.950;6.920;2023-02-15T12:57:25;12.60;96.00
3602;DHT22;1815;50.950;6.920;2023-02-15T13:00:01;12.60;96.50
3602;DHT22;1815;50.950;6.920;2023-02-15T13:05:30;12.70;96.80
3602;DHT22;1815;50.950;6.920;2023-02-15T13:07:58;12.70;96.90
3602;DHT22;1815;50.950;6.920;2023-02-15T13:10:29;12.80;97.00
3602;DHT22;1815;50.950;6.920;2023-02-15T13:12:57;12.80;96.30
3602;DHT22;1815;50.950;6.920;2023-02-15T13:15:36;12.80;97.10
3602;DHT22;1815;50.950;6.920;2023-02-15T13:18:04;12.90;96.80
3602;DHT22;1815;50.950;6.920;2023-02-15T13:20:32;12.90;97.00
3602;DHT22;1815;50.950;6.920;2023-02-15T13:23:04;12.90;97.00
3602;DHT22;1815;50.950;6.920;2023-02-15T13:25:37;12.90;96.90
3602;DHT22;1815;50.950;6.920;2023-02-15T13:28:07;12.90;96.90
3602;DHT22;1815;50.950;6.920;2023-02-15T13:30:41;12.90;96.70
3602;DHT22;1815;50.950;6.920;2023-02-15T13:33:31;12.90;96.70
3602;DHT22;1815;50.950;6.920;2023-02-15T13:36:05;12.80;95.70
3602;DHT22;1815;50.950;6.920;2023-02-15T13:42:18;12.80;96.80
3602;DHT22;1815;50.950;6.920;2023-02-15T13:45:02;12.90;96.90
3602;DHT22;1815;50.950;6.920;2023-02-15T13:55:57;13.00;97.20
3602;DHT22;1815;50.950;6.920;2023-02-15T14:01:39;13.10;97.20
3602;DHT22;1815;50.950;6.920;2023-02-15T14:07:56;13.30;97.20
3602;DHT22;1815;50.950;6.920;2023-02-15T14:18:15;13.40;96.30
3602;DHT22;1815;50.950;6.920;2023-02-15T14:23:33;13.50;97.30
3602;DHT22;1815;50.950;6.920;2023-02-15T14:26:06;13.60;97.50
3602;DHT22;1815;50.950;6.920;2023-02-15T14:31:40;13.50;96.20
3602;DHT22;1815;50.950;6.920;2023-02-15T14:34:24;13.60;96.70
3602;DHT22;1815;50.950;6.920;2023-02-15T14:36:53;13.60;96.70
3602;DHT22;1815;50.950;6.920;2023-02-15T14:42:23;13.60;96.90
3602;DHT22;1815;50.950;6.920;2023-02-15T14:47:40;13.60;97.20
3602;DHT22;1815;50.950;6.920;2023-02-15T14:55:42;13.60;96.90
3602;DHT22;1815;50.950;6.920;2023-02-15T14:58:12;13.60;97.30
3602;DHT22;1815;50.950;6.920;2023-02-15T15:00:40;13.70;97.20
3602;DHT22;1815;50.950;6.920;2023-02-15T15:03:21;13.70;97.50
3602;DHT22;1815;50.950;6.920;2023-02-15T15:06:02;13.70;97.40
3602;DHT22;1815;50.950;6.920;2023-02-15T15:08:39;13.70;97.40
3602;DHT22;1815;50.950;6.920;2023-02-15T15:13:59;13.70;97.30
3602;DHT22;1815;50.950;6.920;2023-02-15T15:16:31;13.70;97.30
3602;DHT22;1815;50.950;6.920;2023-02-15T15:19:11;13.70;97.30
3602;DHT22;1815;50.950;6.920;2023-02-15T15:32:58;13.60;97.30
3602;DHT22;1815;50.950;6.920;2023-02-15T15:49:15;13.30;97.10
3602;DHT22;1815;50.950;6.920;2023-02-15T15:51:44;13.30;97.20
3602;DHT22;1815;50.950;6.920;2023-02-15T15:54:18;13.20;97.30
3602;DHT22;1815;50.950;6.920;2023-02-15T15:56:48;13.20;97.40
3602;DHT22;1815;50.950;6.920;2023-02-15T15:59:20;13.20;97.50
3602;DHT22;1815;50.950;6.920;2023-02-15T16:01:49;13.20;97.40
3602;DHT22;1815;50.950;6.920;2023-02-15T16:04:32;13.10;97.50
3602;DHT22;1815;50.950;6.920;2023-02-15T16:07:14;13.10;97.60
3602;DHT22;1815;50.950;6.920;2023-02-15T16:10:05;13.10;97.60
3602;DHT22;1815;50.950;6.920;2023-02-15T16:12:36;13.00;97.50
3602;DHT22;1815;50.950;6.920;2023-02-15T16:15:15;13.00;97.60
3602;DHT22;1815;50.950;6.920;2023-02-15T16:17:43;12.90;97.60
3602;DHT22;1815;50.950;6.920;2023-02-15T16:20:22;12.90;97.70
3602;DHT22;1815;50.950;6.920;2023-02-15T16:28:12;12.70;97.80
3602;DHT22;1815;50.950;6.920;2023-02-15T16:30:39;12.70;97.90
3602;DHT22;1815;50.950;6.920;2023-02-15T16:33:09;12.60;97.90
3602;DHT22;1815;50.950;6.920;2023-02-15T16:35:37;12.50;98.00
3602;DHT22;1815;50.950;6.920;2023-02-15T16:38:04;12.40;98.10
3602;DHT22;1815;50.950;6.920;2023-02-15T16:40:40;12.40;98.10
3602;DHT22;1815;50.950;6.920;2023-02-15T16:43:14;12.30;98.30
3602;DHT22;1815;50.950;6.920;2023-02-15T16:45:42;12.30;98.50
3602;DHT22;1815;50.950;6.920;2023-02-15T16:48:18;12.20;98.60
3602;DHT22;1815;50.950;6.920;2023-02-15T16:50:51;12.10;98.80
3602;DHT22;1815;50.950;6.920;2023-02-15T16:53:28;12.00;99.10
3602;DHT22;1815;50.950;6.920;2023-02-15T16:55:59;12.00;98.80
3602;DHT22;1815;50.950;6.920;2023-02-15T16:58:44;11.90;98.90
3602;DHT22;1815;50.950;6.920;2023-02-15T17:01:12;11.90;99.10
3602;DHT22;1815;50.950;6.920;2023-02-15T17:03:41;11.80;99.00
3602;DHT22;1815;50.950;6.920;2023-02-15T17:06:33;11.80;99.10
3602;DHT22;1815;50.950;6.920;2023-02-15T17:09:12;11.70;99.30
3602;DHT22;1815;50.950;6.920;2023-02-15T17:11:43;11.70;99.30
3602;DHT22;1815;50.950;6.920;2023-02-15T17:14:10;11.60;99.90
3602;DHT22;1815;50.950;6.920;2023-02-15T17:16:48;11.50;99.90
3602;DHT22;1815;50.950;6.920;2023-02-15T17:19:23;11.50;99.90
3602;DHT22;1815;50.950;6.920;2023-02-15T17:21:53;11.50;99.90
3602;DHT22;1815;50.950;6.920;2023-02-15T17:24:38;11.50;99.90
3602;DHT22;1815;50.950;6.920;2023-02-15T17:27:12;11.40;99.90
3602;DHT22;1815;50.950;6.920;2023-02-15T17:29:50;11.40;99.90
3602;DHT22;1815;50.950;6.920;2023-02-15T17:32:23;11.40;99.90
3602;DHT22;1815;50.950;6.920;2023-02-15T17:35:05;11.40;99.90
3602;DHT22;1815;50.950;6.920;2023-02-15T17:40:26;11.30;99.90
3602;DHT22;1815;50.950;6.920;2023-02-15T17:42:53;11.30;99.90
3602;DHT22;1815;50.950;6.920;2023-02-15T17:45:19;11.20;99.90
3602;DHT22;1815;50.950;6.920;2023-02-15T17:47:47;11.20;99.90
3602;DHT22;1815;50.950;6.920;2023-02-15T17:50:26;11.20;99.90
3602;DHT22;1815;50.950;6.920;2023-02-15T17:52:53;11.10;99.90
3602;DHT22;1815;50.950;6.920;2023-02-15T17:55:22;11.10;99.90
3602;DHT22;1815;50.950;6.920;2023-02-15T17:58:03;11.10;99.90
3602;DHT22;1815;50.950;6.920;2023-02-15T18:00:30;11.00;99.90
3602;DHT22;1815;50.950;6.920;2023-02-15T18:03:15;11.00;99.90
3602;DHT22;1815;50.950;6.920;2023-02-15T18:06:00;11.00;99.90
3602;DHT22;1815;50.950;6.920;2023-02-15T18:08:45;11.00;99.90
3602;DHT22;1815;50.950;6.920;2023-02-15T18:11:29;11.00;99.90
3602;DHT22;1815;50.950;6.920;2023-02-15T18:14:05;10.90;99.90
3602;DHT22;1815;50.950;6.920;2023-02-15T18:16:37;10.90;99.90
3602;DHT22;1815;50.950;6.920;2023-02-15T18:19:10;10.80;99.90
3602;DHT22;1815;50.950;6.920;2023-02-15T18:21:38;10.80;99.90
3602;DHT22;1815;50.950;6.920;2023-02-15T18:24:03;10.80;99.90
3602;DHT22;1815;50.950;6.920;2023-02-15T18:26:29;10.80;99.90
3602;DHT22;1815;50.950;6.920;2023-02-15T18:28:55;10.80;99.90
3602;DHT22;1815;50.950;6.920;2023-02-15T18:31:22;10.70;99.90
3602;DHT22;1815;50.950;6.920;2023-02-15T18:33:58;10.70;99.90
3602;DHT22;1815;50.950;6.920;2023-02-15T18:36:32;10.70;99.90
3602;DHT22;1815;50.950;6.920;2023-02-15T18:38:59;10.70;99.90
3602;DHT22;1815;50.950;6.920;2023-02-15T18:41:25;10.70;99.90
3602;DHT22;1815;50.950;6.920;2023-02-15T18:43:51;10.60;99.90
3602;DHT22;1815;50.950;6.920;2023-02-15T18:46:19;10.60;99.90
3602;DHT22;1815;50.950;6.920;2023-02-15T18:48:45;10.60;99.90
3602;DHT22;1815;50.950;6.920;2023-02-15T18:51:19;10.60;99.90
3602;DHT22;1815;50.950;6.920;2023-02-15T18:53:52;10.50;99.90
3602;DHT22;1815;50.950;6.920;2023-02-15T18:56:20;10.50;99.90
3602;DHT22;1815;50.950;6.920;2023-02-15T18:58:47;10.50;99.90
3602;DHT22;1815;50.950;6.920;2023-02-15T19:01:15;10.50;99.90
3602;DHT22;1815;50.950;6.920;2023-02-15T19:03:44;10.40;99.90
3602;DHT22;1815;50.950;6.920;2023-02-15T19:06:11;10.40;99.90
3602;DHT22;1815;50.950;6.920;2023-02-15T19:08:38;10.30;99.90
3602;DHT22;1815;50.950;6.920;2023-02-15T19:11:04;10.30;99.90
3602;DHT22;1815;50.950;6.920;2023-02-15T19:13:30;10.30;99.90
3602;DHT22;1815;50.950;6.920;2023-02-15T19:15:57;10.30;99.90
3602;DHT22;1815;50.950;6.920;2023-02-15T19:18:24;10.30;99.90
3602;DHT22;1815;50.950;6.920;2023-02-15T19:20:50;10.20;99.90
3602;DHT22;1815;50.950;6.920;2023-02-15T19:23:18;10.20;99.90
3602;DHT22;1815;50.950;6.920;2023-02-15T19:25:49;10.20;99.90
3602;DHT22;1815;50.950;6.920;2023-02-15T19:28:18;10.20;99.90
3602;DHT22;1815;50.950;6.920;2023-02-15T19:30:44;10.10;99.90
3602;DHT22;1815;50.950;6.920;2023-02-15T19:33:19;10.10;99.90
3602;DHT22;1815;50.950;6.920;2023-02-15T19:35:47;10.10;99.90
3602;DHT22;1815;50.950;6.920;2023-02-15T19:38:23;10.10;99.90
3602;DHT22;1815;50.950;6.920;2023-02-15T19:40:50;10.00;99.90
3602;DHT22;1815;50.950;6.920;2023-02-15T19:43:20;10.00;99.90